createdAt,value
2022-12-08T00:01:35.616Z,6.70
2022-12-08T00:04:05.348Z,7.20
2022-12-08T00:06:54.729Z,7.33
2022-12-08T00:09:25.668Z,6.80
2022-12-08T00:11:56.532Z,7.23
2022-12-08T00:14:26.472Z,7.03
2022-12-08T00:16:55.392Z,6.70
2022-12-08T00:19:24.751Z,7.13
2022-12-08T00:21:54.934Z,7.13
2022-12-08T00:24:23.716Z,7.13
2022-12-08T00:26:51.977Z,6.90
2022-12-08T00:29:20.524Z,8.23
2022-12-08T00:31:49.037Z,10.00
2022-12-08T00:34:17.574Z,9.73
2022-12-08T00:36:45.780Z,9.93
2022-12-08T00:39:16.574Z,10.50
2022-12-08T00:42:02.542Z,10.30
2022-12-08T00:44:30.831Z,10.37
2022-12-08T00:46:58.897Z,9.13
2022-12-08T00:49:26.992Z,10.33
2022-12-08T00:51:55.633Z,9.30
2022-12-08T00:54:25.045Z,10.40
2022-12-08T00:56:53.297Z,9.73
2022-12-08T00:59:21.474Z,9.67
2022-12-08T01:01:49.731Z,9.07
2022-12-08T01:04:19.608Z,8.20
2022-12-08T01:06:48.812Z,8.43
2022-12-08T01:09:21.005Z,8.50
2022-12-08T01:11:50.564Z,7.60
2022-12-08T01:14:18.822Z,8.10
2022-12-08T01:16:47.135Z,8.27
2022-12-08T01:19:17.299Z,8.00
2022-12-08T01:21:47.018Z,8.00
2022-12-08T01:24:17.295Z,8.03
2022-12-08T01:26:46.168Z,7.90
2022-12-08T01:29:15.700Z,7.50
2022-12-08T01:31:44.221Z,7.80
2022-12-08T01:34:13.202Z,7.77
2022-12-08T01:36:42.234Z,7.53
2022-12-08T01:39:18.947Z,7.40
2022-12-08T01:41:48.604Z,6.87
2022-12-08T01:44:55.161Z,7.07
2022-12-08T01:47:25.833Z,7.00
2022-12-08T01:49:54.222Z,8.50
2022-12-08T01:52:27.660Z,7.63
2022-12-08T01:54:59.466Z,6.80
2022-12-08T01:57:31.662Z,7.17
2022-12-08T02:00:06.749Z,7.20
2022-12-08T02:02:43.040Z,6.40
2022-12-08T02:05:12.953Z,7.17
2022-12-08T02:07:41.518Z,7.83
2022-12-08T02:10:11.208Z,7.33
2022-12-08T02:12:39.239Z,7.23
2022-12-08T02:15:09.884Z,7.30
2022-12-08T02:17:51.181Z,6.77
2022-12-08T02:20:38.971Z,7.20
2022-12-08T02:23:16.215Z,7.07
2022-12-08T02:26:03.465Z,6.00
2022-12-08T02:28:55.233Z,6.90
2022-12-08T02:31:38.042Z,6.10
2022-12-08T02:34:19.994Z,6.00
2022-12-08T02:36:55.309Z,6.40
2022-12-08T02:39:30.142Z,6.03
2022-12-08T02:42:08.074Z,6.27
2022-12-08T02:44:40.532Z,6.40
2022-12-08T02:47:12.879Z,6.60
2022-12-08T02:49:42.632Z,6.70
2022-12-08T02:52:42.031Z,5.57
2022-12-08T02:55:16.639Z,6.40
2022-12-08T02:57:57.962Z,6.43
2022-12-08T03:00:28.348Z,6.40
2022-12-08T03:03:09.375Z,5.80
2022-12-08T03:05:56.867Z,5.97
2022-12-08T03:08:33.636Z,6.07
2022-12-08T03:11:06.037Z,5.37
2022-12-08T03:13:39.935Z,5.70
2022-12-08T03:16:10.657Z,5.00
2022-12-08T03:18:44.467Z,4.47
2022-12-08T03:21:16.215Z,5.20
2022-12-08T03:23:47.402Z,4.50
2022-12-08T03:26:20.749Z,5.60
2022-12-08T03:28:48.921Z,4.50
2022-12-08T03:31:19.693Z,4.40
2022-12-08T03:33:52.712Z,4.07
2022-12-08T03:36:22.279Z,4.20
2022-12-08T03:38:53.713Z,4.47
2022-12-08T03:41:22.391Z,4.70
2022-12-08T03:43:51.974Z,4.67
2022-12-08T03:48:51.827Z,5.23
2022-12-08T03:51:22.114Z,5.33
2022-12-08T03:53:50.207Z,4.77
2022-12-08T03:56:23.480Z,4.83
2022-12-08T03:58:51.670Z,5.10
2022-12-08T04:01:20.034Z,5.10
2022-12-08T04:03:48.499Z,5.33
2022-12-08T04:06:17.420Z,4.67
2022-12-08T04:08:47.218Z,4.60
2022-12-08T04:11:15.566Z,5.43
2022-12-08T04:13:44.137Z,5.13
2022-12-08T04:16:17.030Z,5.20
2022-12-08T04:18:45.650Z,5.47
2022-12-08T04:21:13.958Z,5.37
2022-12-08T04:23:42.306Z,5.60
2022-12-08T04:26:12.351Z,5.90
2022-12-08T04:28:40.424Z,5.73
2022-12-08T04:31:08.695Z,6.73
2022-12-08T04:33:36.907Z,6.30
2022-12-08T04:36:06.334Z,5.50
2022-12-08T04:38:34.728Z,5.70
2022-12-08T04:41:03.025Z,5.77
2022-12-08T04:43:32.390Z,5.77
2022-12-08T04:46:00.463Z,5.50
2022-12-08T04:48:28.471Z,5.97
2022-12-08T04:50:56.650Z,6.50
2022-12-08T04:53:26.647Z,6.20
2022-12-08T04:55:55.574Z,5.80
2022-12-08T04:58:23.840Z,6.57
2022-12-08T05:00:53.369Z,6.60
2022-12-08T05:03:26.867Z,7.27
2022-12-08T05:05:56.885Z,7.07
2022-12-08T05:08:25.018Z,7.47
2022-12-08T05:10:53.159Z,7.13
2022-12-08T05:13:21.258Z,7.73
2022-12-08T05:15:49.525Z,7.27
2022-12-08T05:18:18.953Z,7.00
2022-12-08T05:20:47.001Z,6.83
2022-12-08T05:23:15.063Z,7.30
2022-12-08T05:25:43.066Z,7.40
2022-12-08T05:28:39.605Z,6.70
2022-12-08T05:30:59.174Z,7.60
2022-12-08T05:33:28.609Z,7.07
2022-12-08T05:35:56.660Z,7.40
2022-12-08T05:38:24.762Z,8.03
2022-12-08T05:40:52.999Z,8.10
2022-12-08T05:43:21.055Z,7.97
2022-12-08T05:45:49.231Z,7.37
2022-12-08T05:48:17.726Z,8.57
2022-12-08T05:50:49.551Z,8.20
2022-12-08T05:53:18.032Z,8.80
2022-12-08T05:55:46.509Z,9.00
2022-12-08T05:58:16.442Z,7.80
2022-12-08T06:00:45.037Z,8.00
2022-12-08T06:03:13.885Z,8.33
2022-12-08T06:05:42.457Z,7.83
2022-12-08T06:08:12.929Z,8.50
2022-12-08T06:10:41.952Z,7.70
2022-12-08T06:13:10.080Z,8.07
2022-12-08T06:15:38.817Z,7.50
2022-12-08T06:18:07.723Z,6.70
2022-12-08T06:20:35.873Z,7.40
2022-12-08T06:23:04.228Z,5.70
2022-12-08T06:25:33.657Z,6.70
2022-12-08T06:28:01.744Z,5.90
2022-12-08T06:30:29.803Z,5.80
2022-12-08T06:32:57.900Z,7.13
2022-12-08T06:35:25.885Z,6.80
2022-12-08T06:37:53.959Z,7.50
2022-12-08T06:40:21.955Z,6.03
2022-12-08T06:42:51.329Z,5.70
2022-12-08T06:45:19.793Z,7.00
2022-12-08T06:47:47.771Z,6.37
2022-12-08T06:50:16.102Z,5.83
2022-12-08T06:52:55.949Z,6.13
2022-12-08T06:58:21.203Z,6.07
2022-12-08T07:00:49.339Z,6.40
2022-12-08T07:03:17.443Z,5.67
2022-12-08T07:05:45.447Z,6.33
2022-12-08T07:08:13.619Z,6.50
2022-12-08T07:10:41.765Z,6.40
2022-12-08T07:13:09.840Z,6.70
2022-12-08T07:15:39.261Z,6.53
2022-12-08T07:18:07.397Z,6.90
2022-12-08T07:20:35.497Z,7.30
2022-12-08T07:23:03.501Z,6.93
2022-12-08T07:25:31.535Z,6.70
2022-12-08T07:27:59.529Z,6.43
2022-12-08T07:30:27.708Z,6.10
2022-12-08T07:32:57.137Z,7.10
2022-12-08T07:35:25.173Z,6.70
2022-12-08T07:37:53.217Z,6.77
2022-12-08T07:40:23.375Z,6.40
2022-12-08T07:42:51.447Z,6.70
2022-12-08T07:45:19.724Z,6.20
2022-12-08T07:47:47.820Z,6.30
2022-12-08T07:50:17.434Z,6.90
2022-12-08T07:52:45.493Z,6.57
2022-12-08T07:55:13.500Z,6.10
2022-12-08T07:57:41.527Z,6.37
2022-12-08T08:00:11.697Z,6.37
2022-12-08T08:02:40.592Z,5.90
2022-12-08T08:05:09.830Z,6.40
2022-12-08T08:07:39.606Z,5.70
2022-12-08T08:10:09.131Z,6.43
2022-12-08T08:12:38.003Z,5.40
2022-12-08T08:15:08.416Z,5.10
2022-12-08T08:17:37.133Z,4.80
2022-12-08T08:20:07.916Z,4.70
2022-12-08T08:22:37.296Z,4.37
2022-12-08T08:25:07.310Z,4.50
2022-12-08T08:27:35.356Z,4.83
2022-12-08T08:30:03.895Z,4.57
2022-12-08T08:32:34.527Z,4.60
2022-12-08T08:35:02.854Z,4.50
2022-12-08T08:37:30.987Z,4.20
2022-12-08T08:39:59.024Z,4.63
2022-12-08T08:42:28.893Z,4.40
2022-12-08T08:44:57.258Z,4.87
2022-12-08T08:47:25.670Z,4.83
2022-12-08T08:49:53.771Z,4.47
2022-12-08T08:52:21.912Z,4.47
2022-12-08T08:54:49.969Z,4.37
2022-12-08T08:57:25.279Z,4.70
2022-12-08T08:59:56.453Z,4.70
2022-12-08T09:02:25.347Z,4.43
2022-12-08T09:04:55.298Z,4.10
2022-12-08T09:07:23.518Z,4.63
2022-12-08T09:09:54.706Z,4.43
2022-12-08T09:12:26.417Z,4.40
2022-12-08T09:14:55.803Z,4.17
2022-12-08T09:17:24.252Z,4.40
2022-12-08T09:19:52.252Z,5.07
2022-12-08T09:22:21.887Z,4.80
2022-12-08T09:24:49.947Z,4.30
2022-12-08T09:27:17.996Z,4.67
2022-12-08T09:29:46.048Z,4.73
2022-12-08T09:32:15.636Z,4.00
2022-12-08T09:34:46.461Z,4.50
2022-12-08T09:37:18.953Z,4.37
2022-12-08T09:39:48.013Z,4.57
2022-12-08T09:42:26.720Z,4.40
2022-12-08T09:45:03.455Z,5.30
2022-12-08T09:47:37.797Z,4.50
2022-12-08T09:50:12.332Z,4.60
2022-12-08T09:52:46.050Z,4.07
2022-12-08T09:55:23.491Z,4.30
2022-12-08T09:57:58.907Z,4.40
2022-12-08T10:00:27.814Z,4.40
2022-12-08T10:02:59.935Z,4.27
2022-12-08T10:05:29.941Z,4.30
2022-12-08T10:08:07.144Z,4.90
2022-12-08T10:10:42.944Z,4.77
2022-12-08T10:13:22.532Z,5.40
2022-12-08T10:15:59.878Z,4.70
2022-12-08T10:18:33.036Z,5.60
2022-12-08T10:21:13.242Z,4.87
2022-12-08T10:23:43.327Z,6.50
2022-12-08T10:26:15.463Z,6.77
2022-12-08T10:28:45.416Z,5.60
2022-12-08T10:31:17.967Z,5.40
2022-12-08T10:33:49.277Z,6.60
2022-12-08T10:36:17.288Z,6.47
2022-12-08T10:38:45.366Z,5.97
2022-12-08T10:41:18.020Z,6.43
2022-12-08T10:43:49.195Z,6.80
2022-12-08T10:46:19.894Z,7.17
2022-12-08T10:48:54.414Z,5.97
2022-12-08T10:51:29.605Z,7.13
2022-12-08T10:53:57.952Z,5.80
2022-12-08T10:56:28.668Z,6.27
2022-12-08T10:59:18.396Z,7.20
2022-12-08T11:01:48.647Z,6.37
2022-12-08T11:04:20.383Z,4.70
2022-12-08T11:06:50.156Z,5.50
2022-12-08T11:09:38.059Z,5.50
2022-12-08T11:12:13.965Z,5.07
2022-12-08T11:14:50.260Z,4.73
2022-12-08T11:17:25.503Z,5.00
2022-12-08T11:20:00.981Z,3.90
2022-12-08T11:22:33.790Z,4.50
2022-12-08T11:25:10.332Z,4.03
2022-12-08T11:27:40.357Z,4.20
2022-12-08T11:30:15.817Z,3.47
2022-12-08T11:32:46.194Z,4.10
2022-12-08T11:35:23.862Z,3.80
2022-12-08T11:37:51.914Z,3.87
2022-12-08T11:40:25.810Z,3.80
2022-12-08T11:43:03.365Z,4.30
2022-12-08T11:45:36.254Z,3.77
2022-12-08T11:48:12.618Z,3.53
2022-12-08T11:50:46.919Z,4.00
2022-12-08T11:53:26.066Z,3.77
2022-12-08T11:55:58.583Z,3.73
2022-12-08T11:58:32.932Z,4.30
2022-12-08T12:01:01.993Z,3.87
2022-12-08T12:03:35.140Z,4.47
2022-12-08T12:06:58.846Z,5.13
2022-12-08T12:09:38.365Z,3.97
2022-12-08T12:12:16.545Z,4.03
2022-12-08T12:15:08.428Z,3.93
2022-12-08T12:17:45.006Z,5.13
2022-12-08T12:20:18.393Z,4.03
2022-12-08T12:22:52.339Z,4.27
2022-12-08T12:25:23.608Z,4.10
2022-12-08T12:27:57.188Z,4.70
2022-12-08T12:30:27.620Z,4.20
2022-12-08T12:32:59.397Z,4.10
2022-12-08T12:35:33.818Z,3.90
2022-12-08T12:38:27.303Z,4.10
2022-12-08T12:41:01.790Z,4.93
2022-12-08T12:43:33.090Z,4.37
2022-12-08T12:46:39.280Z,4.03
2022-12-08T12:49:45.868Z,3.10
2022-12-08T12:52:50.532Z,3.27
2022-12-08T12:55:43.136Z,3.80
2022-12-08T12:58:37.883Z,3.10
2022-12-08T13:01:43.348Z,3.10
2022-12-08T13:04:12.473Z,3.70
2022-12-08T13:06:43.895Z,3.20
2022-12-08T13:09:27.789Z,4.47
2022-12-08T13:11:59.422Z,4.07
2022-12-08T13:14:35.788Z,4.10
2022-12-08T13:17:09.563Z,3.73
2022-12-08T13:19:39.814Z,4.10
2022-12-08T13:22:41.005Z,3.70
2022-12-08T13:25:47.376Z,4.00
2022-12-08T13:28:23.308Z,3.57
2022-12-08T13:30:52.358Z,3.67
2022-12-08T13:33:26.055Z,3.93
2022-12-08T13:36:04.545Z,4.63
2022-12-08T13:38:36.696Z,4.13
2022-12-08T13:41:12.379Z,4.80
2022-12-08T13:44:20.049Z,4.63
2022-12-08T13:51:24.028Z,4.67
2022-12-08T13:56:51.312Z,5.60
2022-12-08T13:58:21.089Z,4.73
2022-12-08T14:01:02.795Z,4.63
2022-12-08T14:03:31.346Z,4.87
2022-12-08T14:06:15.668Z,4.93
2022-12-08T14:09:10.446Z,4.90
2022-12-08T14:11:39.054Z,5.50
2022-12-08T14:14:10.646Z,5.67
2022-12-08T14:16:41.292Z,5.73
2022-12-08T14:19:18.900Z,5.33
2022-12-08T14:21:54.696Z,5.40
2022-12-08T14:24:24.130Z,5.10
2022-12-08T14:26:55.288Z,5.67
2022-12-08T14:29:45.555Z,5.67
2022-12-08T14:32:27.870Z,5.80
2022-12-08T14:34:58.181Z,5.93
2022-12-08T14:37:28.271Z,6.40
2022-12-08T14:40:01.787Z,6.77
2022-12-08T14:42:31.184Z,6.07
2022-12-08T14:45:06.585Z,6.00
2022-12-08T14:47:36.139Z,5.70
2022-12-08T14:50:25.959Z,5.93
2022-12-08T14:52:55.364Z,6.37
2022-12-08T14:55:23.569Z,6.87
2022-12-08T14:57:51.671Z,7.70
2022-12-08T15:00:21.864Z,7.13
2022-12-08T15:02:52.948Z,9.13
2022-12-08T15:05:22.649Z,9.30
2022-12-08T15:07:52.784Z,11.43
2022-12-08T15:10:27.564Z,10.93
2022-12-08T15:13:02.102Z,10.83
2022-12-08T15:15:31.510Z,10.30
2022-12-08T15:18:03.922Z,9.27
2022-12-08T15:20:40.636Z,8.77
2022-12-08T15:23:20.139Z,9.30
2022-12-08T15:25:49.769Z,10.40
2022-12-08T15:28:21.269Z,9.57
2022-12-08T15:30:51.219Z,8.77
2022-12-08T15:33:19.319Z,9.50
2022-12-08T15:35:48.232Z,8.47
2022-12-08T15:38:24.697Z,8.33
2022-12-08T15:40:54.733Z,8.63
2022-12-08T15:43:23.508Z,9.37
2022-12-08T15:45:59.213Z,9.20
2022-12-08T15:48:29.807Z,10.27
2022-12-08T15:50:58.401Z,10.50
2022-12-08T15:53:26.483Z,11.40
2022-12-08T15:58:53.436Z,11.27
2022-12-08T16:01:22.197Z,11.10
2022-12-08T16:09:31.958Z,12.60
2022-12-08T16:12:22.084Z,11.80
2022-12-08T16:17:39.347Z,11.77
2022-12-08T16:20:09.934Z,11.97
2022-12-08T16:23:03.111Z,12.10
2022-12-08T16:25:28.801Z,11.40
2022-12-08T16:28:23.110Z,11.27
2022-12-08T16:30:50.762Z,11.63
2022-12-08T16:33:18.940Z,11.60
2022-12-08T16:35:46.935Z,13.05
2022-12-08T16:38:16.681Z,13.20
2022-12-08T16:41:03.759Z,12.53
2022-12-08T16:43:35.012Z,13.70
2022-12-08T16:46:03.690Z,15.33
2022-12-08T16:48:31.990Z,13.60
2022-12-08T16:51:00.054Z,14.60
2022-12-08T16:53:28.086Z,15.00
2022-12-08T16:55:56.088Z,15.20
2022-12-08T16:58:24.104Z,14.83
2022-12-08T17:00:53.834Z,14.63
2022-12-08T17:03:21.944Z,17.67
2022-12-08T17:05:49.919Z,18.00
2022-12-08T17:08:18.165Z,16.60
2022-12-08T17:11:06.240Z,17.17
2022-12-08T17:13:34.435Z,17.40
2022-12-08T17:16:04.335Z,15.53
2022-12-08T17:18:32.407Z,17.60
2022-12-08T17:21:00.387Z,16.27
2022-12-08T17:23:28.427Z,16.83
2022-12-08T17:26:00.445Z,16.20
2022-12-08T17:28:51.877Z,15.63
2022-12-08T17:31:18.623Z,19.43
2022-12-08T17:33:46.738Z,19.10
2022-12-08T17:36:17.045Z,21.50
2022-12-08T17:38:45.361Z,20.97
2022-12-08T17:41:13.376Z,19.53
2022-12-08T17:43:41.471Z,17.70
2022-12-08T17:46:09.531Z,17.73
2022-12-08T17:48:39.127Z,20.00
2022-12-08T17:51:10.271Z,19.67
2022-12-08T17:53:39.958Z,17.10
2022-12-08T17:56:15.270Z,15.77
2022-12-08T17:58:43.258Z,16.50
2022-12-08T18:01:13.517Z,15.73
2022-12-08T18:03:42.950Z,15.67
2022-12-08T18:06:13.347Z,18.23
2022-12-08T18:08:41.691Z,15.70
2022-12-08T18:11:14.199Z,17.83
2022-12-08T18:13:42.442Z,17.03
2022-12-08T18:16:10.470Z,16.90
2022-12-08T18:18:38.640Z,16.50
2022-12-08T18:21:08.127Z,17.80
2022-12-08T18:23:38.124Z,17.43
2022-12-08T18:26:06.593Z,18.63
2022-12-08T18:28:34.973Z,17.37
2022-12-08T18:31:03.094Z,16.83
2022-12-08T18:33:31.273Z,16.60
2022-12-08T18:35:59.290Z,19.23
2022-12-08T18:38:28.668Z,20.40
2022-12-08T18:40:56.669Z,21.00
2022-12-08T18:43:24.669Z,20.33
2022-12-08T18:46:02.323Z,21.57
2022-12-08T18:48:30.484Z,23.43
2022-12-08T18:50:58.753Z,23.30
2022-12-08T18:53:28.226Z,21.37
2022-12-08T18:55:56.373Z,20.97
2022-12-08T18:58:24.501Z,24.53
2022-12-08T19:00:52.507Z,24.03
2022-12-08T19:03:20.604Z,24.80
2022-12-08T19:05:48.625Z,23.63
2022-12-08T19:08:16.695Z,22.03
2022-12-08T19:10:46.180Z,22.63
2022-12-08T19:13:14.180Z,24.00
2022-12-08T19:15:42.191Z,22.90
2022-12-08T19:18:10.250Z,24.60
2022-12-08T19:20:38.289Z,22.67
2022-12-08T19:23:06.309Z,25.10
2022-12-08T19:25:34.305Z,22.03
2022-12-08T19:28:03.700Z,23.03
2022-12-08T19:30:32.259Z,24.33
2022-12-08T19:33:00.398Z,24.33
2022-12-08T19:35:31.418Z,27.43
2022-12-08T19:37:59.403Z,25.53
2022-12-08T19:40:44.947Z,24.40
2022-12-08T19:43:35.764Z,24.57
2022-12-08T19:46:03.902Z,26.20
2022-12-08T19:48:32.026Z,25.40
2022-12-08T19:51:00.182Z,27.63
2022-12-08T19:53:28.768Z,25.70
2022-12-08T19:55:56.838Z,27.33
2022-12-08T19:58:26.250Z,25.17
2022-12-08T20:00:54.819Z,24.20
2022-12-08T20:03:23.654Z,24.23
2022-12-08T20:05:53.550Z,25.40
2022-12-08T20:08:21.689Z,25.37
2022-12-08T20:10:49.722Z,26.93
2022-12-08T20:13:35.075Z,26.53
2022-12-08T20:16:04.775Z,26.70
2022-12-08T20:18:35.943Z,26.20
2022-12-08T20:21:04.056Z,25.17
2022-12-08T20:23:32.423Z,24.90
2022-12-08T20:26:00.573Z,24.40
2022-12-08T20:28:28.578Z,23.93
2022-12-08T20:30:56.692Z,25.43
2022-12-08T20:33:26.110Z,27.37
2022-12-08T20:36:00.147Z,26.90
2022-12-08T20:38:28.674Z,28.90
2022-12-08T20:40:57.848Z,33.83
2022-12-08T20:43:26.892Z,31.93
2022-12-08T20:45:54.916Z,32.00
2022-12-08T20:48:22.994Z,29.07
2022-12-08T20:50:53.136Z,29.60
2022-12-08T20:53:21.290Z,31.43
2022-12-08T20:55:49.408Z,31.60
2022-12-08T20:58:17.545Z,27.07
2022-12-08T21:00:45.621Z,27.10
2022-12-08T21:03:15.366Z,22.80
2022-12-08T21:05:49.298Z,25.53
2022-12-08T21:08:20.402Z,23.10
2022-12-08T21:10:54.750Z,26.60
2022-12-08T21:13:23.011Z,36.23
2022-12-08T21:15:51.184Z,37.67
2022-12-08T21:18:19.607Z,35.23
2022-12-08T21:20:48.773Z,33.47
2022-12-08T21:23:19.295Z,31.77
2022-12-08T21:25:48.290Z,33.60
2022-12-08T21:28:16.622Z,31.73
2022-12-08T21:30:45.022Z,35.40
2022-12-08T21:33:13.325Z,32.93
2022-12-08T21:35:41.543Z,31.37
2022-12-08T21:38:09.670Z,31.83
2022-12-08T21:40:39.313Z,32.50
2022-12-08T21:43:07.674Z,30.27
2022-12-08T21:45:36.129Z,29.73
2022-12-08T21:48:10.772Z,30.17
2022-12-08T21:50:39.772Z,31.67
2022-12-08T21:53:08.036Z,28.00
2022-12-08T21:55:36.173Z,28.73
2022-12-08T21:58:05.609Z,30.40
2022-12-08T22:00:33.857Z,24.00
2022-12-08T22:03:02.274Z,29.97
2022-12-08T22:05:30.534Z,33.07
2022-12-08T22:07:58.847Z,32.73
2022-12-08T22:10:27.053Z,29.57
2022-12-08T22:12:55.271Z,29.80
2022-12-08T22:15:25.534Z,29.73
2022-12-08T22:17:53.774Z,29.07
2022-12-08T22:20:22.266Z,28.70
2022-12-08T22:22:50.391Z,29.13
2022-12-08T22:25:18.522Z,28.77
2022-12-08T22:27:46.673Z,30.70
2022-12-08T22:30:14.971Z,29.70
2022-12-08T22:32:44.483Z,26.93
2022-12-08T22:35:12.724Z,27.30
2022-12-08T22:37:40.866Z,26.37
2022-12-08T22:40:11.116Z,27.07
2022-12-08T22:42:40.102Z,26.43
2022-12-08T22:45:09.462Z,27.73
2022-12-08T22:47:37.566Z,29.67
2022-12-08T22:50:08.809Z,28.20
2022-12-08T22:52:37.364Z,25.53
2022-12-08T22:55:06.274Z,26.73
2022-12-08T22:57:34.348Z,25.93
2022-12-08T23:00:03.534Z,24.97
2022-12-08T23:02:31.717Z,25.40
2022-12-08T23:04:59.863Z,25.60
2022-12-08T23:07:29.581Z,26.23
2022-12-08T23:09:57.690Z,25.90
2022-12-08T23:12:25.876Z,22.50
2022-12-08T23:14:54.050Z,26.17
2022-12-08T23:17:22.277Z,25.53
2022-12-08T23:19:50.542Z,25.30
2022-12-08T23:22:18.732Z,24.00
2022-12-08T23:24:48.135Z,25.20
2022-12-08T23:27:16.264Z,23.73
2022-12-08T23:29:44.317Z,23.60
2022-12-08T23:32:12.437Z,22.73
2022-12-08T23:34:40.527Z,23.87
2022-12-08T23:37:08.554Z,22.80
2022-12-08T23:39:36.596Z,24.90
2022-12-08T23:42:06.356Z,22.20
2022-12-08T23:44:34.510Z,24.30
2022-12-08T23:47:02.642Z,25.13
2022-12-08T23:49:30.757Z,22.30
2022-12-08T23:51:58.952Z,22.17
2022-12-08T23:54:26.964Z,22.60
2022-12-08T23:56:55.163Z,23.57
2022-12-08T23:59:24.512Z,22.73
